Weather at Jorge Isaac Airport

Public forecast

Using degrees Celsius for public forecast. Weather courtesy of forecast.io.

Closest aviation weather report (METAR) to Jorge Isaac Airport

Report is more than 2 hours old.

Closest report is Almirante Padilla Airport, 31.1 nm (57.7 km) NW.

2024/02/23 00:00 (retrieved 5 hours ago)

SKRH 230000Z 04006KT 350V060 9999 FEW018 27/25 Q1011

Closest aviation forecast (TAF) to Jorge Isaac Airport

Forecast is more than 12 hours old.

Closest forecast is Barquisimeto International Airport, 198.1 nm (366.9 km) ESE.

2024/02/21 18:21 (retrieved 1 day ago)

TAF SVBM 211600Z 2118/2218 11008KT 9999 FEW016 TX37/2208Z TN22/2208Z BECMG 2119/2123 02012KT FEW016 CB SCT020 BECMG 2204/2208 00000KT 9000 BR BKN016